createdAt,value
2019-01-16T00:02:36.334Z,1.60
2019-01-16T00:08:27.948Z,3.77
2019-01-16T00:14:26.497Z,2.17
2019-01-16T00:20:19.583Z,5.47
2019-01-16T00:25:45.728Z,2.40
2019-01-16T00:28:19.523Z,4.23
2019-01-16T00:30:53.927Z,1.93
2019-01-16T00:33:29.983Z,2.47
2019-01-16T00:36:06.355Z,2.17
2019-01-16T00:41:48.275Z,3.67
2019-01-16T00:47:35.439Z,3.13
2019-01-16T00:50:44.920Z,4.10
2019-01-16T00:53:21.853Z,1.90
2019-01-16T00:59:23.014Z,2.53
2019-01-16T01:04:56.848Z,3.27
2019-01-16T01:10:55.769Z,2.03
2019-01-16T01:16:24.823Z,5.57
2019-01-16T01:21:55.027Z,1.97
2019-01-16T01:27:21.206Z,1.73
2019-01-16T01:33:16.787Z,1.93
2019-01-16T01:36:32.470Z,6.20
2019-01-16T01:39:20.859Z,2.83
2019-01-16T01:45:18.107Z,4.17
2019-01-16T01:51:06.371Z,2.17
2019-01-16T01:54:29.730Z,3.07
2019-01-16T01:56:34.834Z,2.37
2019-01-16T02:02:13.813Z,4.97
2019-01-16T02:04:52.938Z,2.17
2019-01-16T02:07:48.189Z,2.57
2019-01-16T02:10:27.704Z,2.50
2019-01-16T02:13:03.321Z,4.17
2019-01-16T02:15:38.967Z,3.57
2019-01-16T02:18:19.589Z,2.13
2019-01-16T02:21:09.128Z,3.33
2019-01-16T02:23:53.413Z,2.40
2019-01-16T02:26:47.287Z,3.20
2019-01-16T02:29:36.640Z,3.33
2019-01-16T02:32:25.640Z,3.03
2019-01-16T02:35:16.864Z,2.93
2019-01-16T02:37:53.591Z,2.23
2019-01-16T02:40:41.157Z,4.93
2019-01-16T02:43:17.668Z,2.67
2019-01-16T02:46:03.926Z,5.00
2019-01-16T02:48:55.830Z,3.47
2019-01-16T02:51:36.309Z,4.90
2019-01-16T02:54:21.845Z,3.10
2019-01-16T02:57:16.987Z,6.03
2019-01-16T02:59:57.218Z,4.37
2019-01-16T03:02:34.650Z,3.53
2019-01-16T03:05:08.399Z,5.17
2019-01-16T03:07:44.065Z,3.93
2019-01-16T03:10:22.364Z,5.80
2019-01-16T03:13:03.632Z,4.00
2019-01-16T03:15:40.210Z,4.33
2019-01-16T03:18:18.033Z,3.63
2019-01-16T03:21:03.470Z,4.57
2019-01-16T03:23:57.774Z,5.70
2019-01-16T03:26:38.405Z,4.67
2019-01-16T03:29:13.956Z,5.10
2019-01-16T03:32:17.425Z,5.60
2019-01-16T03:34:57.887Z,4.47
2019-01-16T03:37:37.299Z,5.57
2019-01-16T03:40:29.108Z,4.27
2019-01-16T03:43:17.000Z,6.50
2019-01-16T03:45:54.953Z,5.03
2019-01-16T03:48:36.405Z,6.13
2019-01-16T03:51:32.864Z,5.23
2019-01-16T03:54:16.235Z,6.70
2019-01-16T03:57:04.279Z,5.00
2019-01-16T03:59:47.973Z,5.37
2019-01-16T04:02:45.119Z,3.77
2019-01-16T04:05:20.360Z,5.67
2019-01-16T04:07:59.658Z,5.90
2019-01-16T04:10:50.749Z,5.20
2019-01-16T04:13:28.757Z,4.87
2019-01-16T04:16:07.388Z,5.13
2019-01-16T04:18:47.683Z,4.50
2019-01-16T04:21:29.596Z,4.57
2019-01-16T04:24:30.049Z,3.73
2019-01-16T04:27:13.310Z,4.40
2019-01-16T04:29:49.361Z,4.97
2019-01-16T04:32:40.975Z,6.80
2019-01-16T04:35:15.108Z,6.13
2019-01-16T04:37:59.179Z,4.37
2019-01-16T04:40:46.044Z,4.53
2019-01-16T04:43:18.608Z,5.03
2019-01-16T04:45:57.694Z,4.33
2019-01-16T04:48:40.213Z,7.67
2019-01-16T04:51:31.424Z,3.90
2019-01-16T04:54:23.503Z,4.93
2019-01-16T04:57:13.707Z,5.60
2019-01-16T04:59:58.849Z,4.17
2019-01-16T05:02:52.843Z,3.70
2019-01-16T05:05:32.950Z,3.90
2019-01-16T05:08:16.653Z,4.97
2019-01-16T05:10:54.343Z,4.67
2019-01-16T05:13:33.344Z,6.20
2019-01-16T05:16:20.807Z,5.43
2019-01-16T05:19:02.914Z,4.47
2019-01-16T05:21:43.435Z,6.10
2019-01-16T05:24:20.961Z,4.73
2019-01-16T05:27:15.896Z,3.87
2019-01-16T05:30:08.776Z,5.80
2019-01-16T05:32:50.974Z,4.53
2019-01-16T05:35:42.349Z,4.77
2019-01-16T05:38:24.239Z,4.87
2019-01-16T05:41:12.341Z,4.60
2019-01-16T05:43:52.845Z,6.33
2019-01-16T05:46:33.071Z,6.07
2019-01-16T05:49:21.655Z,5.03
2019-01-16T05:52:14.489Z,5.17
2019-01-16T05:55:10.830Z,6.10
2019-01-16T05:57:59.050Z,9.50
2019-01-16T06:00:36.414Z,7.37
2019-01-16T06:03:15.271Z,5.90
2019-01-16T06:06:07.725Z,9.03
2019-01-16T06:12:02.964Z,9.23
2019-01-16T06:14:46.361Z,8.13
2019-01-16T06:17:36.670Z,8.10
2019-01-16T06:20:15.023Z,7.77
2019-01-16T06:26:01.584Z,9.00
2019-01-16T06:28:37.317Z,11.93
2019-01-16T06:31:26.939Z,14.47
2019-01-16T06:34:01.929Z,12.70
2019-01-16T06:36:38.389Z,12.07
2019-01-16T06:39:14.074Z,14.30
2019-01-16T06:42:02.621Z,16.73
2019-01-16T06:44:43.587Z,11.97
2019-01-16T06:47:16.988Z,15.53
2019-01-16T06:49:53.513Z,17.03
2019-01-16T06:52:25.511Z,19.00
2019-01-16T06:55:12.836Z,15.97
2019-01-16T06:57:46.606Z,14.07
2019-01-16T07:00:31.647Z,10.17
2019-01-16T07:03:21.346Z,10.13
2019-01-16T07:06:10.248Z,12.33
2019-01-16T07:08:57.474Z,10.37
2019-01-16T07:11:31.191Z,14.67
2019-01-16T07:14:13.647Z,13.67
2019-01-16T07:17:01.154Z,12.03
2019-01-16T07:19:36.049Z,20.05
2019-01-16T07:22:11.018Z,12.87
2019-01-16T07:24:58.736Z,18.90
2019-01-16T07:27:38.159Z,16.63
2019-01-16T07:30:22.959Z,11.93
2019-01-16T07:33:02.131Z,13.93
2019-01-16T07:35:47.125Z,13.53
2019-01-16T07:38:31.560Z,13.67
2019-01-16T07:41:04.445Z,13.00
2019-01-16T07:43:42.016Z,11.17
2019-01-16T07:46:26.551Z,13.53
2019-01-16T07:49:08.558Z,12.07
2019-01-16T07:54:57.541Z,11.50
2019-01-16T08:00:29.411Z,13.35
2019-01-16T08:06:08.068Z,10.20
2019-01-16T08:08:58.187Z,11.88
2019-01-16T08:11:42.905Z,12.98
2019-01-16T08:14:19.406Z,13.60
2019-01-16T08:17:04.163Z,12.17
2019-01-16T08:19:40.295Z,11.03
2019-01-16T08:22:15.998Z,13.20
2019-01-16T08:24:48.948Z,12.70
2019-01-16T08:27:35.914Z,11.33
2019-01-16T08:30:18.726Z,11.33
2019-01-16T08:32:53.919Z,10.20
2019-01-16T08:35:27.234Z,11.20
2019-01-16T08:38:00.582Z,12.43
2019-01-16T08:40:41.218Z,9.50
2019-01-16T08:43:16.456Z,8.17
2019-01-16T08:46:05.892Z,7.63
2019-01-16T08:48:39.879Z,15.30
2019-01-16T08:51:31.542Z,10.23
2019-01-16T08:54:36.183Z,11.27
2019-01-16T08:57:19.220Z,13.38
2019-01-16T08:59:57.068Z,9.10
2019-01-16T09:02:34.851Z,9.03
2019-01-16T09:05:30.599Z,11.37
2019-01-16T09:08:15.308Z,9.40
2019-01-16T09:10:50.871Z,9.77
2019-01-16T09:13:33.891Z,10.77
2019-01-16T09:19:14.663Z,12.97
2019-01-16T09:22:01.296Z,12.60
2019-01-16T09:24:52.457Z,11.97
2019-01-16T09:27:27.190Z,9.07
2019-01-16T09:30:22.518Z,10.43
2019-01-16T09:36:06.786Z,12.47
2019-01-16T09:38:37.772Z,10.47
2019-01-16T09:41:24.629Z,10.30
2019-01-16T09:43:58.123Z,10.28
2019-01-16T09:46:30.055Z,11.67
2019-01-16T09:49:10.421Z,9.77
2019-01-16T09:51:51.946Z,9.73
2019-01-16T09:54:39.261Z,12.07
2019-01-16T09:57:27.594Z,10.17
2019-01-16T10:00:16.702Z,14.10
2019-01-16T10:03:03.904Z,7.50
2019-01-16T10:05:50.642Z,16.90
2019-01-16T10:08:39.617Z,11.43
2019-01-16T10:11:28.699Z,12.87
2019-01-16T10:14:01.065Z,10.50
2019-01-16T10:16:46.482Z,11.57
2019-01-16T10:19:27.642Z,9.60
2019-01-16T10:22:17.311Z,9.67
2019-01-16T10:25:05.431Z,9.70
2019-01-16T10:27:39.730Z,10.23
2019-01-16T10:30:29.900Z,8.33
2019-01-16T10:33:19.051Z,10.87
2019-01-16T10:35:56.074Z,6.87
2019-01-16T10:38:32.200Z,12.13
2019-01-16T10:41:23.611Z,11.60
2019-01-16T10:43:57.866Z,10.37
2019-01-16T10:46:39.105Z,14.60
2019-01-16T10:49:29.853Z,11.45
2019-01-16T10:52:19.291Z,10.30
2019-01-16T10:55:00.390Z,11.28
2019-01-16T10:57:39.768Z,10.53
2019-01-16T11:00:28.409Z,9.07
2019-01-16T11:03:29.621Z,8.03
2019-01-16T11:06:03.069Z,9.67
2019-01-16T11:08:43.836Z,9.53
2019-01-16T11:11:29.382Z,11.83
2019-01-16T11:14:10.318Z,9.47
2019-01-16T11:16:42.439Z,14.10
2019-01-16T11:19:14.286Z,11.00
2019-01-16T11:22:04.286Z,8.33
2019-01-16T11:24:48.198Z,8.50
2019-01-16T11:27:26.055Z,11.37
2019-01-16T11:30:10.864Z,11.57
2019-01-16T11:32:52.723Z,7.90
2019-01-16T11:35:36.861Z,10.97
2019-01-16T11:38:10.611Z,7.13
2019-01-16T11:41:06.276Z,9.90
2019-01-16T11:43:50.788Z,8.83
2019-01-16T11:46:29.172Z,8.23
2019-01-16T11:49:05.937Z,7.63
2019-01-16T11:51:55.793Z,9.73
2019-01-16T11:54:43.412Z,9.20
2019-01-16T11:57:33.089Z,10.60
2019-01-16T12:03:03.151Z,9.73
2019-01-16T12:05:50.187Z,7.13
2019-01-16T12:12:06.275Z,7.90
2019-01-16T12:14:40.182Z,11.03
2019-01-16T12:17:17.636Z,8.90
2019-01-16T12:20:05.759Z,7.43
2019-01-16T12:22:38.230Z,10.73
2019-01-16T12:25:12.652Z,8.77
2019-01-16T12:28:04.754Z,10.17
2019-01-16T12:30:49.363Z,10.03
2019-01-16T12:33:32.482Z,11.27
2019-01-16T12:36:08.318Z,9.73
2019-01-16T12:38:58.364Z,6.43
2019-01-16T12:41:38.920Z,5.87
2019-01-16T12:44:32.711Z,6.23
2019-01-16T12:47:08.318Z,11.00
2019-01-16T12:49:56.417Z,7.33
2019-01-16T12:52:27.793Z,6.53
2019-01-16T12:55:21.769Z,6.23
2019-01-16T12:58:13.499Z,8.53
2019-01-16T13:00:51.803Z,6.87
2019-01-16T13:03:42.002Z,9.97
2019-01-16T13:06:17.707Z,4.77
2019-01-16T13:08:58.129Z,2.97
2019-01-16T13:11:47.883Z,5.50
2019-01-16T13:14:21.147Z,6.15
2019-01-16T13:16:59.060Z,6.77
2019-01-16T13:19:35.957Z,8.10
2019-01-16T13:22:13.561Z,7.63
2019-01-16T13:24:48.561Z,9.67
2019-01-16T13:27:28.986Z,5.30
2019-01-16T13:30:04.102Z,6.55
2019-01-16T13:32:38.249Z,6.58
2019-01-16T13:35:28.154Z,10.63
2019-01-16T13:38:01.238Z,4.67
2019-01-16T13:40:36.307Z,6.50
2019-01-16T13:43:30.113Z,7.17
2019-01-16T13:46:19.589Z,5.23
2019-01-16T13:48:55.718Z,5.13
2019-01-16T13:51:32.859Z,10.90
2019-01-16T13:54:04.032Z,6.57
2019-01-16T13:56:40.968Z,8.70
2019-01-16T13:59:21.363Z,6.40
2019-01-16T14:02:04.080Z,6.73
2019-01-16T14:04:43.506Z,7.63
2019-01-16T14:07:17.482Z,6.10
2019-01-16T14:10:02.224Z,6.03
2019-01-16T14:12:37.821Z,6.23
2019-01-16T14:15:29.888Z,5.17
2019-01-16T14:18:01.839Z,5.70
2019-01-16T14:20:59.276Z,7.90
2019-01-16T14:23:48.682Z,4.53
2019-01-16T14:26:27.515Z,9.10
2019-01-16T14:29:11.516Z,6.47
2019-01-16T14:32:00.461Z,5.43
2019-01-16T14:34:58.606Z,6.60
2019-01-16T14:37:38.923Z,7.40
2019-01-16T14:40:29.902Z,6.20
2019-01-16T14:43:16.028Z,8.10
2019-01-16T14:45:47.656Z,4.77
2019-01-16T14:48:35.256Z,7.40
2019-01-16T14:51:22.672Z,9.43
2019-01-16T14:54:11.404Z,6.83
2019-01-16T14:56:52.702Z,9.80
2019-01-16T14:59:44.496Z,13.87
2019-01-16T15:02:31.325Z,8.00
2019-01-16T15:05:05.273Z,8.80
2019-01-16T15:07:37.475Z,8.00
2019-01-16T15:10:11.769Z,6.80
2019-01-16T15:12:59.627Z,5.93
2019-01-16T15:15:35.514Z,7.35
2019-01-16T15:18:08.644Z,7.17
2019-01-16T15:20:43.258Z,8.13
2019-01-16T15:23:22.945Z,6.30
2019-01-16T15:26:00.417Z,9.23
2019-01-16T15:28:51.814Z,8.20
2019-01-16T15:31:30.926Z,6.97
2019-01-16T15:34:21.168Z,7.80
2019-01-16T15:36:56.077Z,12.20
2019-01-16T15:39:45.864Z,7.93
2019-01-16T15:42:33.151Z,7.67
2019-01-16T15:45:18.949Z,8.83
2019-01-16T15:47:54.931Z,11.33
2019-01-16T15:50:46.866Z,6.97
2019-01-16T15:53:26.522Z,7.83
2019-01-16T15:55:57.635Z,7.23
2019-01-16T15:59:00.630Z,7.07
2019-01-16T16:01:53.976Z,9.87
2019-01-16T16:04:13.780Z,7.03
2019-01-16T16:07:09.465Z,7.80
2019-01-16T16:09:46.378Z,10.80
2019-01-16T16:12:39.649Z,6.57
2019-01-16T16:15:12.839Z,8.13
2019-01-16T16:18:02.591Z,10.83
2019-01-16T16:20:37.989Z,12.10
2019-01-16T16:23:10.460Z,10.30
2019-01-16T16:25:45.513Z,10.47
2019-01-16T16:28:17.892Z,16.37
2019-01-16T16:31:11.195Z,8.23
2019-01-16T16:33:43.599Z,8.03
2019-01-16T16:36:33.755Z,9.30
2019-01-16T16:39:23.223Z,9.77
2019-01-16T16:42:12.381Z,7.50
2019-01-16T16:45:02.892Z,8.87
2019-01-16T16:47:42.849Z,8.40
2019-01-16T16:50:22.327Z,10.17
2019-01-16T16:53:06.942Z,8.27
2019-01-16T16:55:51.840Z,13.93
2019-01-16T16:58:36.042Z,9.03
2019-01-16T17:01:14.006Z,8.23
2019-01-16T17:03:49.664Z,10.33
2019-01-16T17:06:37.499Z,6.90
2019-01-16T17:09:17.695Z,10.73
2019-01-16T17:12:08.219Z,6.57
2019-01-16T17:14:49.805Z,9.40
2019-01-16T17:17:26.532Z,10.00
2019-01-16T17:20:06.028Z,9.83
2019-01-16T17:22:46.450Z,8.37
2019-01-16T17:25:24.348Z,7.43
2019-01-16T17:28:17.955Z,8.97
2019-01-16T17:31:02.254Z,8.03
2019-01-16T17:33:39.628Z,8.10
2019-01-16T17:36:22.975Z,8.47
2019-01-16T17:39:01.501Z,10.50
2019-01-16T17:41:52.882Z,9.50
2019-01-16T17:44:29.244Z,7.73
2019-01-16T17:47:19.530Z,10.67
2019-01-16T17:50:21.906Z,10.67
2019-01-16T17:53:05.920Z,11.87
2019-01-16T17:56:08.241Z,9.37
2019-01-16T17:58:48.606Z,8.97
2019-01-16T18:01:29.299Z,8.77
2019-01-16T18:04:22.713Z,11.20
2019-01-16T18:06:55.791Z,6.97
2019-01-16T18:09:51.530Z,11.93
2019-01-16T18:12:32.992Z,9.40
2019-01-16T18:15:16.719Z,7.80
2019-01-16T18:17:54.662Z,11.47
2019-01-16T18:20:27.866Z,11.83
2019-01-16T18:23:20.236Z,11.13
2019-01-16T18:26:06.802Z,11.30
2019-01-16T18:28:50.576Z,10.37
2019-01-16T18:31:28.487Z,11.37
2019-01-16T18:34:25.056Z,7.60
2019-01-16T18:36:57.188Z,10.50
2019-01-16T18:39:46.301Z,11.43
2019-01-16T18:42:19.779Z,13.90
2019-01-16T18:45:10.652Z,10.90
2019-01-16T18:48:01.428Z,9.57
2019-01-16T18:50:44.340Z,11.70
2019-01-16T18:53:43.413Z,8.90
2019-01-16T18:56:34.223Z,9.03
2019-01-16T18:59:24.058Z,9.57
2019-01-16T19:01:59.338Z,6.70
2019-01-16T19:04:39.269Z,6.83
2019-01-16T19:07:23.898Z,10.70
2019-01-16T19:10:15.769Z,10.13
2019-01-16T19:12:53.668Z,9.30
2019-01-16T19:15:29.890Z,11.13
2019-01-16T19:18:23.112Z,9.60
2019-01-16T19:21:11.829Z,7.73
2019-01-16T19:24:02.666Z,14.47
2019-01-16T19:26:45.104Z,15.80
2019-01-16T19:29:54.981Z,10.60
2019-01-16T19:32:41.029Z,9.67
2019-01-16T19:38:24.672Z,12.03
2019-01-16T19:44:06.522Z,9.60
2019-01-16T19:49:57.016Z,6.87
2019-01-16T19:55:42.062Z,6.57
2019-01-16T19:58:14.320Z,9.47
2019-01-16T20:00:54.162Z,8.37
2019-01-16T20:03:31.666Z,6.53
2019-01-16T20:06:42.458Z,11.47
2019-01-16T20:09:37.079Z,12.80
2019-01-16T20:12:59.823Z,7.63
2019-01-16T20:15:45.370Z,12.47
2019-01-16T20:19:12.540Z,11.30
2019-01-16T20:22:05.052Z,9.93
2019-01-16T20:27:52.921Z,11.03
2019-01-16T20:30:57.376Z,12.10
2019-01-16T20:33:28.757Z,8.60
2019-01-16T20:36:51.318Z,8.70
2019-01-16T20:39:39.433Z,11.97
2019-01-16T20:42:12.901Z,10.67
2019-01-16T20:44:52.136Z,10.03
2019-01-16T20:47:44.605Z,13.77
2019-01-16T20:50:33.134Z,12.13
2019-01-16T20:56:18.220Z,10.40
2019-01-16T20:59:55.252Z,10.73
2019-01-16T21:02:36.856Z,12.77
2019-01-16T21:06:13.585Z,13.40
2019-01-16T21:08:58.999Z,13.47
2019-01-16T21:14:50.266Z,14.43
2019-01-16T21:20:46.672Z,17.07
2019-01-16T21:24:02.614Z,16.33
2019-01-16T21:26:51.864Z,17.20
2019-01-16T21:32:33.129Z,13.33
2019-01-16T21:38:12.736Z,15.77
2019-01-16T21:43:48.350Z,18.93
2019-01-16T21:46:57.766Z,15.00
2019-01-16T21:49:31.604Z,17.33
2019-01-16T21:52:02.159Z,18.63
2019-01-16T21:58:21.766Z,12.70
2019-01-16T22:01:07.924Z,14.00
2019-01-16T22:04:20.395Z,14.60
2019-01-16T22:06:59.175Z,15.10
2019-01-16T22:12:39.244Z,15.03
2019-01-16T22:18:00.559Z,15.10
2019-01-16T22:23:43.822Z,13.83
2019-01-16T22:27:54.122Z,12.13
2019-01-16T22:28:59.731Z,12.37
2019-01-16T22:32:11.740Z,15.83
2019-01-16T22:34:16.999Z,12.97
2019-01-16T22:37:23.850Z,13.10
2019-01-16T22:40:01.133Z,8.50
2019-01-16T22:45:44.199Z,11.33
2019-01-16T22:51:44.639Z,10.10
2019-01-16T22:57:34.304Z,12.43
2019-01-16T23:02:59.946Z,15.67
2019-01-16T23:05:33.515Z,11.63
2019-01-16T23:08:16.837Z,7.47
2019-01-16T23:10:59.486Z,11.13
2019-01-16T23:14:04.376Z,10.90
2019-01-16T23:16:51.195Z,13.57
2019-01-16T23:22:22.212Z,13.47
2019-01-16T23:28:08.470Z,8.87
2019-01-16T23:34:00.999Z,8.33
2019-01-16T23:39:49.144Z,12.53
2019-01-16T23:45:35.273Z,12.50
2019-01-16T23:48:07.487Z,8.33
2019-01-16T23:57:12.534Z,12.13
